Date,TemperatureHighF,TemperatureAvgF,TemperatureLowF,DewpointHighF,DewpointAvgF,DewpointLowF,HumidityHigh,HumidityAvg,HumidityLow,PressureMaxIn,PressureMinIn,WindSpeedMaxMPH,WindSpeedAvgMPH,GustSpeedMaxMPH,PrecipitationSumIn
2013-1-1,38,34,30,36,32,28,94,93,93,18.62,18.62,7,0,7,0.01
2013-1-2,36,30,22,28,22,18,84,71,61,21.06,16.57,4,0,4,0.00
2013-1-3,44,30,19,33,23,15,91,77,55,16.57,16.57,4,0,4,0.00
2013-1-7,54,51,45,32,30,27,49,44,40,18.08,17.75,6,0,6,0.00
2013-1-8,59,52,47,45,43,38,91,73,54,18.23,17.69,7,0,7,0.27
2013-1-9,54,50,47,47,44,38,94,80,60,17.52,16.72,17,1,17,0.05
2013-1-10,58,50,46,56,47,40,92,88,67,22.31,17.52,12,1,12,0.09
2013-1-11,65,54,44,48,46,41,92,75,51,25.36,22.31,14,1,14,0.00
2013-1-13,28,23,16,22,18,13,86,81,76,0.00,40.00,0,0,0,0.01
2013-1-14,28,17,13,19,13,10,98,85,61,17.72,17.72,0,0,0,0.00
2013-1-15,35,31,22,23,20,16,81,64,46,17.59,17.20,5,0,5,0.00
2013-1-16,44,29,14,25,18,11,92,68,44,25.84,17.59,3,0,3,0.01
2013-1-17,48,34,22,35,25,18,89,71,52,26.50,20.91,11,0,11,0.00
2013-1-18,56,39,22,35,27,19,91,65,38,26.04,17.00,10,0,10,0.00
2013-1-19,64,49,38,40,34,28,76,57,41,26.07,17.60,7,0,7,0.00
2013-1-20,60,43,27,38,31,23,90,65,40,26.61,19.01,7,0,7,0.00
2013-1-21,40,33,24,18,17,15,70,53,39,22.09,18.24,9,0,9,0.00
2013-1-22,47,33,20,28,21,14,82,64,47,22.09,17.35,9,0,9,0.00
2013-1-23,62,43,24,45,33,20,87,71,54,26.19,17.35,6,0,6,0.00
2013-1-24,44,39,35,34,24,18,73,55,44,25.75,20.06,10,1,10,0.00
2013-1-25,51,39,31,37,31,28,91,73,50,21.15,19.41,6,0,6,0.00
2013-1-26,61,46,31,33,28,24,85,53,27,22.67,18.18,6,0,6,0.00
2013-1-27,60,51,46,53,45,33,88,78,58,22.67,22.67,13,1,13,0.00
2013-1-28,71,68,66,61,61,60,83,78,72,0.00,40.00,1,1,0,0.00
2013-1-29,68,65,56,63,60,53,92,85,81,29.43,27.13,2,1,0,1.37